sensor_id;sensor_type;location;lat;lon;timestamp;temperature;humidity
5382;DHT22;2714;49.852;6.564;2023-04-03T00:02:57;4.40;99.90
5382;DHT22;2714;49.852;6.564;2023-04-03T00:06:57;4.40;99.90
5382;DHT22;2714;49.852;6.564;2023-04-03T00:10:58;4.40;99.90
5382;DHT22;2714;49.852;6.564;2023-04-03T00:14:59;4.40;99.90
5382;DHT22;2714;49.852;6.564;2023-04-03T00:19:00;4.40;99.90
5382;DHT22;2714;49.852;6.564;2023-04-03T00:23:01;4.30;99.90
5382;DHT22;2714;49.852;6.564;2023-04-03T00:27:01;4.30;99.90
5382;DHT22;2714;49.852;6.564;2023-04-03T00:31:02;4.30;99.90
5382;DHT22;2714;49.852;6.564;2023-04-03T00:35:03;4.10;99.90
5382;DHT22;2714;49.852;6.564;2023-04-03T00:39:04;4.10;99.90
5382;DHT22;2714;49.852;6.564;2023-04-03T00:43:25;3.90;99.90
5382;DHT22;2714;49.852;6.564;2023-04-03T00:47:27;3.90;99.90
5382;DHT22;2714;49.852;6.564;2023-04-03T00:51:28;3.80;99.90
5382;DHT22;2714;49.852;6.564;2023-04-03T00:55:29;3.70;99.90
5382;DHT22;2714;49.852;6.564;2023-04-03T00:59:32;3.70;99.90
5382;DHT22;2714;49.852;6.564;2023-04-03T01:03:34;3.70;99.90
5382;DHT22;2714;49.852;6.564;2023-04-03T01:07:35;3.70;99.90
5382;DHT22;2714;49.852;6.564;2023-04-03T01:11:37;3.60;99.90
5382;DHT22;2714;49.852;6.564;2023-04-03T01:15:37;3.60;99.90
5382;DHT22;2714;49.852;6.564;2023-04-03T01:19:41;3.60;99.90
5382;DHT22;2714;49.852;6.564;2023-04-03T01:27:57;3.60;99.90
5382;DHT22;2714;49.852;6.564;2023-04-03T01:32:00;3.50;99.90
5382;DHT22;2714;49.852;6.564;2023-04-03T01:36:02;3.50;99.90
5382;DHT22;2714;49.852;6.564;2023-04-03T01:40:03;3.30;99.90
5382;DHT22;2714;49.852;6.564;2023-04-03T01:44:04;3.30;99.90
5382;DHT22;2714;49.852;6.564;2023-04-03T01:48:05;3.20;99.90
5382;DHT22;2714;49.852;6.564;2023-04-03T01:52:06;3.20;99.90
5382;DHT22;2714;49.852;6.564;2023-04-03T01:56:07;3.00;99.90
5382;DHT22;2714;49.852;6.564;2023-04-03T02:00:08;2.80;99.90
5382;DHT22;2714;49.852;6.564;2023-04-03T02:04:09;2.80;99.90
5382;DHT22;2714;49.852;6.564;2023-04-03T02:08:10;2.70;99.90
5382;DHT22;2714;49.852;6.564;2023-04-03T02:12:11;2.60;99.90
5382;DHT22;2714;49.852;6.564;2023-04-03T02:16:12;2.60;99.90
5382;DHT22;2714;49.852;6.564;2023-04-03T02:20:13;2.60;99.90
5382;DHT22;2714;49.852;6.564;2023-04-03T02:24:14;2.50;99.90
5382;DHT22;2714;49.852;6.564;2023-04-03T02:28:14;2.40;99.90
5382;DHT22;2714;49.852;6.564;2023-04-03T02:32:15;2.40;99.90
5382;DHT22;2714;49.852;6.564;2023-04-03T02:36:16;2.40;99.90
5382;DHT22;2714;49.852;6.564;2023-04-03T02:40:17;2.40;99.90
5382;DHT22;2714;49.852;6.564;2023-04-03T02:44:17;2.50;99.90
5382;DHT22;2714;49.852;6.564;2023-04-03T02:48:19;2.60;99.90
5382;DHT22;2714;49.852;6.564;2023-04-03T02:52:20;2.50;99.90
5382;DHT22;2714;49.852;6.564;2023-04-03T02:56:20;2.40;99.90
5382;DHT22;2714;49.852;6.564;2023-04-03T03:00:21;2.40;99.90
5382;DHT22;2714;49.852;6.564;2023-04-03T03:04:22;2.50;99.90
5382;DHT22;2714;49.852;6.564;2023-04-03T03:08:22;2.60;99.90
5382;DHT22;2714;49.852;6.564;2023-04-03T03:12:23;2.60;99.90
5382;DHT22;2714;49.852;6.564;2023-04-03T03:16:25;2.60;99.90
5382;DHT22;2714;49.852;6.564;2023-04-03T03:20:25;2.60;99.90
5382;DHT22;2714;49.852;6.564;2023-04-03T03:24:26;2.60;99.90
5382;DHT22;2714;49.852;6.564;2023-04-03T03:28:26;2.60;99.90
5382;DHT22;2714;49.852;6.564;2023-04-03T03:32:27;2.70;99.90
5382;DHT22;2714;49.852;6.564;2023-04-03T03:36:27;2.80;99.90
5382;DHT22;2714;49.852;6.564;2023-04-03T03:40:28;2.80;99.90
5382;DHT22;2714;49.852;6.564;2023-04-03T03:44:29;2.70;99.90
5382;DHT22;2714;49.852;6.564;2023-04-03T03:48:29;2.70;99.90
5382;DHT22;2714;49.852;6.564;2023-04-03T03:52:30;2.60;99.90
5382;DHT22;2714;49.852;6.564;2023-04-03T03:56:31;2.60;99.90
5382;DHT22;2714;49.852;6.564;2023-04-03T04:00:32;2.50;99.90
5382;DHT22;2714;49.852;6.564;2023-04-03T04:04:32;2.50;99.90
5382;DHT22;2714;49.852;6.564;2023-04-03T04:08:33;2.40;99.90
5382;DHT22;2714;49.852;6.564;2023-04-03T04:12:33;2.30;99.90
5382;DHT22;2714;49.852;6.564;2023-04-03T04:16:35;2.40;99.90
5382;DHT22;2714;49.852;6.564;2023-04-03T04:20:36;2.30;99.90
5382;DHT22;2714;49.852;6.564;2023-04-03T04:24:37;2.30;99.90
5382;DHT22;2714;49.852;6.564;2023-04-03T04:28:37;2.20;99.90
5382;DHT22;2714;49.852;6.564;2023-04-03T04:32:38;2.20;99.90
5382;DHT22;2714;49.852;6.564;2023-04-03T04:36:39;2.10;99.90
5382;DHT22;2714;49.852;6.564;2023-04-03T04:40:39;2.20;99.90
5382;DHT22;2714;49.852;6.564;2023-04-03T04:44:40;2.20;99.90
5382;DHT22;2714;49.852;6.564;2023-04-03T04:48:41;2.20;99.90
5382;DHT22;2714;49.852;6.564;2023-04-03T04:52:42;2.30;99.90
5382;DHT22;2714;49.852;6.564;2023-04-03T04:56:42;2.30;99.90
5382;DHT22;2714;49.852;6.564;2023-04-03T05:00:43;2.30;99.90
5382;DHT22;2714;49.852;6.564;2023-04-03T05:04:44;2.30;99.90
5382;DHT22;2714;49.852;6.564;2023-04-03T05:08:44;2.20;99.90
5382;DHT22;2714;49.852;6.564;2023-04-03T05:12:45;2.30;99.90
5382;DHT22;2714;49.852;6.564;2023-04-03T05:16:46;2.20;99.90
5382;DHT22;2714;49.852;6.564;2023-04-03T05:20:49;2.30;99.90
5382;DHT22;2714;49.852;6.564;2023-04-03T05:24:50;2.30;99.90
5382;DHT22;2714;49.852;6.564;2023-04-03T05:28:51;2.20;99.90
5382;DHT22;2714;49.852;6.564;2023-04-03T05:32:51;2.20;99.90
5382;DHT22;2714;49.852;6.564;2023-04-03T05:36:52;2.20;99.90
5382;DHT22;2714;49.852;6.564;2023-04-03T05:40:53;2.20;99.90
5382;DHT22;2714;49.852;6.564;2023-04-03T05:44:53;2.10;99.90
5382;DHT22;2714;49.852;6.564;2023-04-03T05:48:54;2.20;99.90
5382;DHT22;2714;49.852;6.564;2023-04-03T05:52:56;2.30;99.90
5382;DHT22;2714;49.852;6.564;2023-04-03T05:56:58;2.50;99.90
5382;DHT22;2714;49.852;6.564;2023-04-03T06:00:58;2.50;99.90
5382;DHT22;2714;49.852;6.564;2023-04-03T06:04:59;2.60;99.90
5382;DHT22;2714;49.852;6.564;2023-04-03T06:09:00;2.90;99.90
5382;DHT22;2714;49.852;6.564;2023-04-03T06:13:00;3.10;99.90
5382;DHT22;2714;49.852;6.564;2023-04-03T06:17:01;3.20;99.90
5382;DHT22;2714;49.852;6.564;2023-04-03T06:21:02;3.30;99.90
5382;DHT22;2714;49.852;6.564;2023-04-03T06:25:04;3.30;99.90
5382;DHT22;2714;49.852;6.564;2023-04-03T06:29:05;3.40;99.90
5382;DHT22;2714;49.852;6.564;2023-04-03T06:33:05;3.40;99.90
5382;DHT22;2714;49.852;6.564;2023-04-03T06:37:06;3.60;99.90
5382;DHT22;2714;49.852;6.564;2023-04-03T06:41:07;3.70;99.90
5382;DHT22;2714;49.852;6.564;2023-04-03T06:45:07;3.90;99.90
5382;DHT22;2714;49.852;6.564;2023-04-03T06:49:09;4.00;99.90
5382;DHT22;2714;49.852;6.564;2023-04-03T06:53:11;4.20;99.90
5382;DHT22;2714;49.852;6.564;2023-04-03T06:57:12;4.30;99.90
5382;DHT22;2714;49.852;6.564;2023-04-03T07:01:15;4.50;99.90
5382;DHT22;2714;49.852;6.564;2023-04-03T07:05:16;4.70;99.90
5382;DHT22;2714;49.852;6.564;2023-04-03T07:09:17;4.90;99.90
5382;DHT22;2714;49.852;6.564;2023-04-03T07:13:17;5.00;99.90
5382;DHT22;2714;49.852;6.564;2023-04-03T07:17:18;5.20;99.90
5382;DHT22;2714;49.852;6.564;2023-04-03T07:21:19;5.40;99.90
5382;DHT22;2714;49.852;6.564;2023-04-03T07:25:19;5.40;99.90
5382;DHT22;2714;49.852;6.564;2023-04-03T07:29:20;5.70;99.90
5382;DHT22;2714;49.852;6.564;2023-04-03T07:33:22;5.90;99.90
5382;DHT22;2714;49.852;6.564;2023-04-03T07:37:23;6.10;99.90
5382;DHT22;2714;49.852;6.564;2023-04-03T07:41:23;6.30;99.90
5382;DHT22;2714;49.852;6.564;2023-04-03T07:45:24;6.20;99.90
5382;DHT22;2714;49.852;6.564;2023-04-03T07:49:25;6.30;99.90
5382;DHT22;2714;49.852;6.564;2023-04-03T07:53:26;8.60;99.90
5382;DHT22;2714;49.852;6.564;2023-04-03T07:57:26;11.40;99.90
5382;DHT22;2714;49.852;6.564;2023-04-03T08:01:27;14.20;98.40
5382;DHT22;2714;49.852;6.564;2023-04-03T08:05:28;15.90;94.10
5382;DHT22;2714;49.852;6.564;2023-04-03T08:09:28;15.80;91.40
5382;DHT22;2714;49.852;6.564;2023-04-03T08:13:29;16.60;90.00
5382;DHT22;2714;49.852;6.564;2023-04-03T08:17:31;17.40;83.70
5382;DHT22;2714;49.852;6.564;2023-04-03T08:21:31;18.60;79.40
5382;DHT22;2714;49.852;6.564;2023-04-03T08:25:32;18.70;77.60
5382;DHT22;2714;49.852;6.564;2023-04-03T08:29:34;16.90;75.30
5382;DHT22;2714;49.852;6.564;2023-04-03T08:33:34;17.10;77.20
5382;DHT22;2714;49.852;6.564;2023-04-03T08:37:37;18.40;75.50
5382;DHT22;2714;49.852;6.564;2023-04-03T08:41:40;19.70;73.40
5382;DHT22;2714;49.852;6.564;2023-04-03T08:45:51;19.70;70.80
5382;DHT22;2714;49.852;6.564;2023-04-03T08:49:56;17.50;71.50
5382;DHT22;2714;49.852;6.564;2023-04-03T08:54:05;17.10;75.00
5382;DHT22;2714;49.852;6.564;2023-04-03T08:58:26;19.00;70.60
5382;DHT22;2714;49.852;6.564;2023-04-03T09:02:33;19.20;67.80
5382;DHT22;2714;49.852;6.564;2023-04-03T09:06:36;14.60;68.00
5382;DHT22;2714;49.852;6.564;2023-04-03T09:10:39;11.80;75.80
5382;DHT22;2714;49.852;6.564;2023-04-03T09:18:50;9.90;91.10
5382;DHT22;2714;49.852;6.564;2023-04-03T09:22:53;10.20;91.00
5382;DHT22;2714;49.852;6.564;2023-04-03T09:27:01;10.10;90.00
5382;DHT22;2714;49.852;6.564;2023-04-03T09:35:27;9.40;93.10
5382;DHT22;2714;49.852;6.564;2023-04-03T09:39:29;9.90;92.30
5382;DHT22;2714;49.852;6.564;2023-04-03T09:43:32;10.10;92.30
5382;DHT22;2714;49.852;6.564;2023-04-03T09:47:35;12.70;83.90
5382;DHT22;2714;49.852;6.564;2023-04-03T09:51:36;12.00;81.00
5382;DHT22;2714;49.852;6.564;2023-04-03T09:55:43;12.40;83.60
5382;DHT22;2714;49.852;6.564;2023-04-03T10:04:06;15.80;75.20
5382;DHT22;2714;49.852;6.564;2023-04-03T10:12:19;18.10;65.10
5382;DHT22;2714;49.852;6.564;2023-04-03T10:16:25;18.70;64.20
5382;DHT22;2714;49.852;6.564;2023-04-03T10:20:35;19.70;61.30
5382;DHT22;2714;49.852;6.564;2023-04-03T10:25:43;20.60;58.70
5382;DHT22;2714;49.852;6.564;2023-04-03T10:29:36;18.50;57.20
5382;DHT22;2714;49.852;6.564;2023-04-03T10:34:06;18.60;60.60
5382;DHT22;2714;49.852;6.564;2023-04-03T10:38:48;18.40;57.50
5382;DHT22;2714;49.852;6.564;2023-04-03T10:43:09;20.60;59.00
5382;DHT22;2714;49.852;6.564;2023-04-03T10:56:20;16.60;58.40
5382;DHT22;2714;49.852;6.564;2023-04-03T11:00:38;17.10;58.90
5382;DHT22;2714;49.852;6.564;2023-04-03T11:04:40;16.10;60.10
5382;DHT22;2714;49.852;6.564;2023-04-03T11:08:50;17.00;58.20
5382;DHT22;2714;49.852;6.564;2023-04-03T11:12:59;18.00;58.60
5382;DHT22;2714;49.852;6.564;2023-04-03T11:17:33;17.90;58.60
5382;DHT22;2714;49.852;6.564;2023-04-03T11:21:48;18.80;59.60
5382;DHT22;2714;49.852;6.564;2023-04-03T11:25:56;18.00;59.30
5382;DHT22;2714;49.852;6.564;2023-04-03T11:30:00;14.90;61.40
5382;DHT22;2714;49.852;6.564;2023-04-03T11:38:44;13.90;65.10
5382;DHT22;2714;49.852;6.564;2023-04-03T11:42:47;14.20;63.10
5382;DHT22;2714;49.852;6.564;2023-04-03T11:46:59;14.60;65.20
5382;DHT22;2714;49.852;6.564;2023-04-03T11:59:23;16.00;61.70
5382;DHT22;2714;49.852;6.564;2023-04-03T12:07:29;15.60;60.30
5382;DHT22;2714;49.852;6.564;2023-04-03T12:11:31;15.70;60.00
5382;DHT22;2714;49.852;6.564;2023-04-03T12:19:41;16.70;56.50
5382;DHT22;2714;49.852;6.564;2023-04-03T12:28:12;15.90;57.60
5382;DHT22;2714;49.852;6.564;2023-04-03T12:36:43;16.30;57.70
5382;DHT22;2714;49.852;6.564;2023-04-03T12:40:53;15.80;55.80
5382;DHT22;2714;49.852;6.564;2023-04-03T12:45:14;14.70;59.10
5382;DHT22;2714;49.852;6.564;2023-04-03T12:49:38;13.30;61.10
5382;DHT22;2714;49.852;6.564;2023-04-03T12:53:39;12.60;59.60
5382;DHT22;2714;49.852;6.564;2023-04-03T12:57:40;11.80;59.90
5382;DHT22;2714;49.852;6.564;2023-04-03T13:01:42;11.30;60.80
5382;DHT22;2714;49.852;6.564;2023-04-03T13:05:45;11.30;64.50
5382;DHT22;2714;49.852;6.564;2023-04-03T13:09:55;11.10;64.60
5382;DHT22;2714;49.852;6.564;2023-04-03T13:13:59;10.40;61.60
5382;DHT22;2714;49.852;6.564;2023-04-03T13:17:59;10.40;63.40
5382;DHT22;2714;49.852;6.564;2023-04-03T13:22:04;10.20;64.00
5382;DHT22;2714;49.852;6.564;2023-04-03T13:26:07;10.40;68.00
5382;DHT22;2714;49.852;6.564;2023-04-03T13:30:28;10.40;69.10
5382;DHT22;2714;49.852;6.564;2023-04-03T13:34:36;10.20;65.70
5382;DHT22;2714;49.852;6.564;2023-04-03T13:38:37;10.30;68.90
5382;DHT22;2714;49.852;6.564;2023-04-03T13:42:40;10.40;68.30
5382;DHT22;2714;49.852;6.564;2023-04-03T13:46:42;10.10;65.60
5382;DHT22;2714;49.852;6.564;2023-04-03T13:55:35;9.90;70.60
5382;DHT22;2714;49.852;6.564;2023-04-03T13:59:36;9.60;73.20
5382;DHT22;2714;49.852;6.564;2023-04-03T14:03:59;9.60;66.20
5382;DHT22;2714;49.852;6.564;2023-04-03T14:08:00;9.70;70.90
5382;DHT22;2714;49.852;6.564;2023-04-03T14:12:07;9.70;73.10
5382;DHT22;2714;49.852;6.564;2023-04-03T14:16:12;9.80;74.50
5382;DHT22;2714;49.852;6.564;2023-04-03T14:20:19;10.10;73.30
5382;DHT22;2714;49.852;6.564;2023-04-03T14:24:20;10.10;73.10
5382;DHT22;2714;49.852;6.564;2023-04-03T14:28:22;9.70;76.80
5382;DHT22;2714;49.852;6.564;2023-04-03T14:32:24;10.00;76.70
5382;DHT22;2714;49.852;6.564;2023-04-03T14:36:27;9.80;77.00
5382;DHT22;2714;49.852;6.564;2023-04-03T14:40:28;9.70;79.30
5382;DHT22;2714;49.852;6.564;2023-04-03T14:44:28;9.70;84.00
5382;DHT22;2714;49.852;6.564;2023-04-03T14:48:29;9.30;82.10
5382;DHT22;2714;49.852;6.564;2023-04-03T14:52:35;9.40;84.20
5382;DHT22;2714;49.852;6.564;2023-04-03T14:56:36;9.60;82.00
5382;DHT22;2714;49.852;6.564;2023-04-03T15:00:36;9.60;81.50
5382;DHT22;2714;49.852;6.564;2023-04-03T15:04:37;9.80;85.50
5382;DHT22;2714;49.852;6.564;2023-04-03T15:08:37;9.80;83.00
5382;DHT22;2714;49.852;6.564;2023-04-03T15:12:38;9.30;81.60
5382;DHT22;2714;49.852;6.564;2023-04-03T15:16:39;9.40;81.90
5382;DHT22;2714;49.852;6.564;2023-04-03T15:20:39;9.30;81.60
5382;DHT22;2714;49.852;6.564;2023-04-03T15:24:40;9.40;82.50
5382;DHT22;2714;49.852;6.564;2023-04-03T15:28:42;9.40;83.70
5382;DHT22;2714;49.852;6.564;2023-04-03T15:32:42;9.50;80.50
5382;DHT22;2714;49.852;6.564;2023-04-03T15:36:43;9.60;79.10
5382;DHT22;2714;49.852;6.564;2023-04-03T15:40:44;9.40;79.40
5382;DHT22;2714;49.852;6.564;2023-04-03T15:44:44;9.40;79.20
5382;DHT22;2714;49.852;6.564;2023-04-03T15:48:45;9.30;78.30
5382;DHT22;2714;49.852;6.564;2023-04-03T15:52:46;9.30;78.00
